IGO612V VOMM-VOBL
Flight info
| Callsign | IGO612V |
|---|---|
| Flight time | 0h 35m |
| Altitude | 16000 |
| Route | MMV W117 BIA |
| Aircraft | A21N/M-SDE2E3FGHIRWXY/LB1 |
Departure
| Time | 2026-05-06 17:15 |
|---|---|
| Airport | Chennai International Airport (VOMM) |
Arrival
| Time | 2026-05-06 17:51 |
|---|---|
| Airport | Kempegowda International Airport Bengaluru (VOBL) |
| Time | Latitude | Longitude | Altitude | Speed | Heading |
|---|---|---|---|---|---|
| 2026-05-06 17:02 | 12.98516 | 80.16621 | 48 ft | 2 kts | 160° |
| 2026-05-06 17:02 | 12.98531 | 80.16618 | 48 ft | 2 kts | 199° |
| 2026-05-06 17:03 | 12.98543 | 80.16627 | 47 ft | 2 kts | 235° |
| 2026-05-06 17:03 | 12.98546 | 80.16634 | 47 ft | 1 kts | 255° |
| 2026-05-06 17:03 | 12.98548 | 80.16638 | 48 ft | 0 kts | 250° |
| 2026-05-06 17:11 | 12.98539 | 80.16612 | 47 ft | 10 kts | 250° |
| 2026-05-06 17:12 | 12.98499 | 80.16509 | 48 ft | 18 kts | 245° |
| 2026-05-06 17:12 | 12.98442 | 80.16390 | 47 ft | 18 kts | 251° |
| 2026-05-06 17:12 | 12.98407 | 80.16260 | 47 ft | 19 kts | 251° |
| 2026-05-06 17:12 | 12.98360 | 80.16136 | 47 ft | 18 kts | 248° |
| 2026-05-06 17:13 | 12.98314 | 80.16012 | 45 ft | 18 kts | 249° |
| 2026-05-06 17:13 | 12.98298 | 80.15884 | 45 ft | 18 kts | 285° |
| 2026-05-06 17:13 | 12.98332 | 80.15762 | 45 ft | 17 kts | 286° |
| 2026-05-06 17:13 | 12.98364 | 80.15641 | 44 ft | 17 kts | 284° |
| 2026-05-06 17:14 | 12.98398 | 80.15519 | 43 ft | 18 kts | 288° |
| 2026-05-06 17:14 | 12.98483 | 80.15493 | 42 ft | 17 kts | 55° |
| 2026-05-06 17:14 | 12.98572 | 80.15719 | 42 ft | 68 kts | 70° |
| 2026-05-06 17:14 | 12.98833 | 80.16412 | 43 ft | 136 kts | 70° |
| 2026-05-06 17:15 | 12.99239 | 80.17487 | 107 ft | 182 kts | 70° |
| 2026-05-06 17:15 | 12.99727 | 80.18728 | 621 ft | 192 kts | 69° |
| 2026-05-06 17:15 | 13.00391 | 80.19894 | 1313 ft | 200 kts | 44° |
| 2026-05-06 17:15 | 13.01702 | 80.20457 | 1758 ft | 220 kts | 1° |
| 2026-05-06 17:16 | 13.03209 | 80.19943 | 2103 ft | 243 kts | 320° |
| 2026-05-06 17:16 | 13.04172 | 80.18426 | 2569 ft | 261 kts | 285° |
| 2026-05-06 17:16 | 13.04500 | 80.16524 | 3182 ft | 274 kts | 276° |
| 2026-05-06 17:16 | 13.04722 | 80.14539 | 3992 ft | 279 kts | 277° |
| 2026-05-06 17:17 | 13.04983 | 80.12573 | 4818 ft | 282 kts | 278° |
| 2026-05-06 17:17 | 13.05305 | 80.10548 | 5648 ft | 285 kts | 280° |
| 2026-05-06 17:17 | 13.05661 | 80.08552 | 6454 ft | 288 kts | 281° |
| 2026-05-06 17:17 | 13.06052 | 80.06499 | 7272 ft | 292 kts | 282° |
| 2026-05-06 17:18 | 13.06457 | 80.04444 | 8083 ft | 295 kts | 283° |
| 2026-05-06 17:18 | 13.06874 | 80.02374 | 8894 ft | 297 kts | 283° |
| 2026-05-06 17:18 | 13.07301 | 80.00279 | 9707 ft | 300 kts | 283° |
| 2026-05-06 17:18 | 13.07733 | 79.98167 | 10494 ft | 304 kts | 283° |
| 2026-05-06 17:19 | 13.08179 | 79.95998 | 10952 ft | 319 kts | 283° |
| 2026-05-06 17:19 | 13.08648 | 79.93726 | 11297 ft | 337 kts | 283° |
| 2026-05-06 17:19 | 13.09147 | 79.91303 | 11826 ft | 348 kts | 283° |
| 2026-05-06 17:19 | 13.09646 | 79.88872 | 12587 ft | 351 kts | 283° |
| 2026-05-06 17:20 | 13.10154 | 79.86390 | 13340 ft | 354 kts | 283° |
| 2026-05-06 17:20 | 13.10665 | 79.83903 | 14046 ft | 359 kts | 283° |
| 2026-05-06 17:20 | 13.11181 | 79.81384 | 14739 ft | 363 kts | 283° |
| 2026-05-06 17:20 | 13.11709 | 79.78815 | 15423 ft | 367 kts | 283° |
| 2026-05-06 17:21 | 13.12237 | 79.76244 | 15879 ft | 371 kts | 283° |
| 2026-05-06 17:21 | 13.12767 | 79.73656 | 16039 ft | 372 kts | 283° |
| 2026-05-06 17:21 | 13.13292 | 79.71094 | 16042 ft | 371 kts | 283° |
| 2026-05-06 17:21 | 13.13823 | 79.68504 | 16044 ft | 371 kts | 283° |
| 2026-05-06 17:22 | 13.14353 | 79.65914 | 16045 ft | 370 kts | 283° |
| 2026-05-06 17:22 | 13.14884 | 79.63326 | 16045 ft | 370 kts | 283° |
| 2026-05-06 17:22 | 13.15411 | 79.60747 | 16044 ft | 370 kts | 283° |
| 2026-05-06 17:22 | 13.15941 | 79.58153 | 15970 ft | 370 kts | 283° |
| 2026-05-06 17:23 | 13.16471 | 79.55559 | 15906 ft | 369 kts | 283° |
| 2026-05-06 17:23 | 13.16997 | 79.52983 | 15881 ft | 369 kts | 283° |
| 2026-05-06 17:23 | 13.17518 | 79.50431 | 15871 ft | 369 kts | 283° |
| 2026-05-06 17:23 | 13.18045 | 79.47850 | 15866 ft | 369 kts | 283° |
| 2026-05-06 17:24 | 13.18567 | 79.45290 | 15864 ft | 369 kts | 283° |
| 2026-05-06 17:24 | 13.19091 | 79.42718 | 15863 ft | 369 kts | 283° |
| 2026-05-06 17:24 | 13.19621 | 79.40120 | 15863 ft | 369 kts | 283° |
| 2026-05-06 17:24 | 13.20146 | 79.37538 | 15863 ft | 369 kts | 283° |
| 2026-05-06 17:25 | 13.20666 | 79.34985 | 15863 ft | 369 kts | 283° |
| 2026-05-06 17:25 | 13.21196 | 79.32378 | 15862 ft | 369 kts | 283° |
| 2026-05-06 17:25 | 13.21722 | 79.29788 | 15862 ft | 369 kts | 283° |
| 2026-05-06 17:25 | 13.22244 | 79.27219 | 15862 ft | 369 kts | 283° |
| 2026-05-06 17:26 | 13.22767 | 79.24642 | 15862 ft | 369 kts | 283° |
| 2026-05-06 17:26 | 13.23291 | 79.22062 | 15862 ft | 369 kts | 283° |
| 2026-05-06 17:26 | 13.23813 | 79.19492 | 15862 ft | 369 kts | 283° |
| 2026-05-06 17:26 | 13.24330 | 79.16943 | 15863 ft | 369 kts | 283° |
| 2026-05-06 17:27 | 13.24855 | 79.14354 | 15863 ft | 369 kts | 283° |
| 2026-05-06 17:27 | 13.25379 | 79.11770 | 15863 ft | 368 kts | 283° |
| 2026-05-06 17:27 | 13.25899 | 79.09203 | 15863 ft | 368 kts | 283° |
| 2026-05-06 17:27 | 13.26421 | 79.06627 | 15863 ft | 368 kts | 283° |
| 2026-05-06 17:28 | 13.26942 | 79.04056 | 15863 ft | 368 kts | 283° |
| 2026-05-06 17:28 | 13.27461 | 79.01491 | 15863 ft | 367 kts | 283° |
| 2026-05-06 17:28 | 13.27977 | 78.98936 | 15863 ft | 367 kts | 283° |
| 2026-05-06 17:28 | 13.28492 | 78.96385 | 15863 ft | 367 kts | 283° |
| 2026-05-06 17:29 | 13.28980 | 78.93803 | 15863 ft | 367 kts | 280° |
| 2026-05-06 17:29 | 13.29241 | 78.91188 | 15867 ft | 368 kts | 274° |
| 2026-05-06 17:29 | 13.29226 | 78.88581 | 15876 ft | 369 kts | 268° |
| 2026-05-06 17:29 | 13.29058 | 78.85959 | 15886 ft | 369 kts | 267° |
| 2026-05-06 17:30 | 13.28861 | 78.83347 | 15897 ft | 369 kts | 267° |
| 2026-05-06 17:30 | 13.28661 | 78.80713 | 15910 ft | 369 kts | 267° |
| 2026-05-06 17:30 | 13.28465 | 78.78099 | 15923 ft | 369 kts | 267° |
| 2026-05-06 17:30 | 13.28272 | 78.75481 | 15936 ft | 369 kts | 267° |
| 2026-05-06 17:31 | 13.28079 | 78.72848 | 15950 ft | 369 kts | 267° |
| 2026-05-06 17:31 | 13.27889 | 78.70229 | 15964 ft | 369 kts | 267° |
| 2026-05-06 17:31 | 13.27698 | 78.67597 | 15976 ft | 369 kts | 267° |
| 2026-05-06 17:31 | 13.27509 | 78.65002 | 15985 ft | 369 kts | 267° |
| 2026-05-06 17:32 | 13.27317 | 78.62352 | 15990 ft | 369 kts | 267° |
| 2026-05-06 17:32 | 13.27128 | 78.59759 | 15994 ft | 369 kts | 267° |
| 2026-05-06 17:32 | 13.26936 | 78.57124 | 15996 ft | 369 kts | 267° |
| 2026-05-06 17:32 | 13.26746 | 78.54515 | 15998 ft | 369 kts | 267° |
| 2026-05-06 17:33 | 13.26554 | 78.51887 | 15998 ft | 369 kts | 267° |
| 2026-05-06 17:33 | 13.26369 | 78.49262 | 15998 ft | 368 kts | 269° |
| 2026-05-06 17:33 | 13.26344 | 78.46653 | 15998 ft | 368 kts | 274° |
| 2026-05-06 17:33 | 13.26556 | 78.44031 | 15998 ft | 367 kts | 279° |
| 2026-05-06 17:34 | 13.26943 | 78.41438 | 15999 ft | 366 kts | 281° |
| 2026-05-06 17:34 | 13.27358 | 78.38897 | 15999 ft | 366 kts | 281° |
| 2026-05-06 17:34 | 13.27786 | 78.36286 | 15999 ft | 366 kts | 281° |
| 2026-05-06 17:34 | 13.28203 | 78.33721 | 15998 ft | 366 kts | 281° |
| 2026-05-06 17:35 | 13.28620 | 78.31123 | 15998 ft | 366 kts | 281° |
| 2026-05-06 17:35 | 13.29030 | 78.28561 | 15999 ft | 366 kts | 281° |
| 2026-05-06 17:35 | 13.29439 | 78.25992 | 15999 ft | 366 kts | 281° |
| 2026-05-06 17:36 | 13.30214 | 78.20801 | 15998 ft | 367 kts | 277° |
| 2026-05-06 17:36 | 13.30414 | 78.18184 | 15998 ft | 368 kts | 274° |
| 2026-05-06 17:36 | 13.30476 | 78.15586 | 15999 ft | 368 kts | 272° |
| 2026-05-06 17:36 | 13.30512 | 78.12952 | 15999 ft | 368 kts | 272° |
| 2026-05-06 17:37 | 13.30543 | 78.10327 | 15999 ft | 368 kts | 272° |
| 2026-05-06 17:37 | 13.30576 | 78.07713 | 15999 ft | 368 kts | 272° |
| 2026-05-06 17:37 | 13.30610 | 78.05099 | 15999 ft | 368 kts | 272° |
| 2026-05-06 17:37 | 13.30646 | 78.02466 | 15999 ft | 368 kts | 272° |
| 2026-05-06 17:38 | 13.30682 | 77.99847 | 15897 ft | 369 kts | 272° |
| 2026-05-06 17:38 | 13.30718 | 77.97235 | 15380 ft | 369 kts | 272° |
| 2026-05-06 17:38 | 13.30755 | 77.94604 | 14896 ft | 367 kts | 272° |
| 2026-05-06 17:38 | 13.30790 | 77.92004 | 14571 ft | 359 kts | 272° |
| 2026-05-06 17:39 | 13.30823 | 77.89510 | 14518 ft | 343 kts | 272° |
| 2026-05-06 17:39 | 13.30854 | 77.87106 | 14452 ft | 329 kts | 272° |
| 2026-05-06 17:39 | 13.30884 | 77.84798 | 14379 ft | 315 kts | 272° |
| 2026-05-06 17:39 | 13.30913 | 77.82604 | 14308 ft | 301 kts | 272° |
| 2026-05-06 17:40 | 13.30940 | 77.80524 | 14239 ft | 288 kts | 272° |
| 2026-05-06 17:40 | 13.30967 | 77.78497 | 14171 ft | 280 kts | 272° |
| 2026-05-06 17:40 | 13.30991 | 77.76492 | 13902 ft | 282 kts | 272° |
| 2026-05-06 17:40 | 13.31009 | 77.74483 | 13542 ft | 280 kts | 272° |
| 2026-05-06 17:41 | 13.31025 | 77.72491 | 13199 ft | 278 kts | 272° |
| 2026-05-06 17:41 | 13.31040 | 77.70529 | 12866 ft | 276 kts | 272° |
| 2026-05-06 17:41 | 13.31056 | 77.68565 | 12536 ft | 273 kts | 272° |
| 2026-05-06 17:41 | 13.31071 | 77.66633 | 12214 ft | 271 kts | 272° |
| 2026-05-06 17:42 | 13.31087 | 77.64711 | 11891 ft | 270 kts | 272° |
| 2026-05-06 17:42 | 13.31102 | 77.62795 | 11567 ft | 269 kts | 272° |
| 2026-05-06 17:42 | 13.31117 | 77.60878 | 11241 ft | 268 kts | 272° |
| 2026-05-06 17:42 | 13.31132 | 77.58965 | 10915 ft | 267 kts | 272° |
| 2026-05-06 17:43 | 13.31146 | 77.57046 | 10589 ft | 266 kts | 272° |
| 2026-05-06 17:43 | 13.31160 | 77.55167 | 10272 ft | 266 kts | 272° |
| 2026-05-06 17:43 | 13.31175 | 77.53239 | 9896 ft | 267 kts | 272° |
| 2026-05-06 17:43 | 13.31194 | 77.51311 | 9491 ft | 268 kts | 272° |
| 2026-05-06 17:44 | 13.31218 | 77.49409 | 9093 ft | 268 kts | 272° |
| 2026-05-06 17:44 | 13.31242 | 77.47485 | 8691 ft | 269 kts | 270° |
| 2026-05-06 17:44 | 13.30894 | 77.45612 | 8269 ft | 271 kts | 244° |
| 2026-05-06 17:44 | 13.29753 | 77.44128 | 8002 ft | 263 kts | 215° |
| 2026-05-06 17:45 | 13.28146 | 77.43407 | 7809 ft | 246 kts | 188° |
| 2026-05-06 17:45 | 13.26532 | 77.43340 | 7599 ft | 224 kts | 167° |
| 2026-05-06 17:45 | 13.25217 | 77.44044 | 7279 ft | 208 kts | 133° |
| 2026-05-06 17:45 | 13.24361 | 77.45196 | 6977 ft | 200 kts | 121° |
| 2026-05-06 17:46 | 13.23638 | 77.46395 | 6607 ft | 199 kts | 119° |
| 2026-05-06 17:46 | 13.22937 | 77.47605 | 6226 ft | 197 kts | 119° |
| 2026-05-06 17:46 | 13.22251 | 77.48800 | 6021 ft | 194 kts | 119° |
| 2026-05-06 17:46 | 13.21566 | 77.50020 | 6022 ft | 196 kts | 116° |
| 2026-05-06 17:47 | 13.21096 | 77.51323 | 6018 ft | 195 kts | 102° |
| 2026-05-06 17:47 | 13.20890 | 77.52708 | 5987 ft | 195 kts | 94° |
| 2026-05-06 17:47 | 13.20833 | 77.54089 | 5776 ft | 195 kts | 90° |
| 2026-05-06 17:47 | 13.20825 | 77.55469 | 5516 ft | 193 kts | 90° |
| 2026-05-06 17:48 | 13.20823 | 77.56849 | 5259 ft | 193 kts | 90° |
| 2026-05-06 17:48 | 13.20815 | 77.58221 | 5003 ft | 192 kts | 90° |
| 2026-05-06 17:48 | 13.20803 | 77.59585 | 4749 ft | 191 kts | 90° |
| 2026-05-06 17:48 | 13.20790 | 77.60907 | 4533 ft | 174 kts | 90° |
| 2026-05-06 17:49 | 13.20778 | 77.62079 | 4280 ft | 157 kts | 91° |
| 2026-05-06 17:49 | 13.20768 | 77.63156 | 4051 ft | 145 kts | 91° |
| 2026-05-06 17:49 | 13.20758 | 77.64187 | 3873 ft | 145 kts | 91° |
| 2026-05-06 17:49 | 13.20749 | 77.65213 | 3698 ft | 144 kts | 91° |
| 2026-05-06 17:50 | 13.20740 | 77.66244 | 3521 ft | 144 kts | 91° |
| 2026-05-06 17:50 | 13.20731 | 77.67269 | 3306 ft | 144 kts | 91° |
| 2026-05-06 17:50 | 13.20723 | 77.68295 | 3119 ft | 143 kts | 91° |
| 2026-05-06 17:50 | 13.20705 | 77.69307 | 3005 ft | 130 kts | 86° |
| 2026-05-06 17:51 | 13.20703 | 77.70055 | 2994 ft | 80 kts | 91° |
| 2026-05-06 17:51 | 13.20665 | 77.70493 | 2985 ft | 43 kts | 112° |
| 2026-05-06 17:51 | 13.20562 | 77.70677 | 2976 ft | 10 kts | 119° |
| 2026-05-06 17:51 | 13.20529 | 77.70751 | 2972 ft | 13 kts | 100° |
| 2026-05-06 17:52 | 13.20525 | 77.70862 | 2966 ft | 17 kts | 92° |
| 2026-05-06 17:52 | 13.20524 | 77.70998 | 2957 ft | 21 kts | 90° |
| 2026-05-06 17:52 | 13.20520 | 77.71139 | 2949 ft | 14 kts | 106° |
| 2026-05-06 17:52 | 13.20440 | 77.71175 | 2952 ft | 11 kts | 180° |
| 2026-05-06 17:53 | 13.20376 | 77.71175 | 2955 ft | 7 kts | 179° |
| 2026-05-06 17:53 | 13.20332 | 77.71176 | 2958 ft | 0 kts | 179° |
| 2026-05-06 17:53 | 13.20327 | 77.71176 | 2958 ft | 2 kts | 181° |
| 2026-05-06 17:54 | 13.20293 | 77.71175 | 2960 ft | 5 kts | 179° |
| 2026-05-06 17:54 | 13.20266 | 77.71177 | 2961 ft | 2 kts | 173° |
| 2026-05-06 17:54 | 13.20252 | 77.71179 | 2961 ft | 3 kts | 173° |
| 2026-05-06 17:54 | 13.20218 | 77.71178 | 2963 ft | 4 kts | 179° |
| 2026-05-06 17:55 | 13.20195 | 77.71180 | 2963 ft | 1 kts | 179° |
| 2026-05-06 17:55 | 13.20190 | 77.71180 | 2964 ft | 0 kts | 179° |